createdAt,value
2022-11-21T00:00:44.534Z,99681.34
2022-11-21T00:03:11.279Z,99682.09
2022-11-21T00:05:42.380Z,99681.34
2022-11-21T00:08:15.117Z,99684.19
2022-11-21T00:10:42.088Z,99629.31
2022-11-21T00:13:13.589Z,99687.44
2022-11-21T00:15:40.298Z,99673.56
2022-11-21T00:18:06.903Z,99675.03
2022-11-21T00:20:35.869Z,99701.22
2022-11-21T00:23:11.781Z,99690.44
2022-11-21T00:25:38.587Z,99668.22
2022-11-21T00:28:05.742Z,99705.69
2022-11-21T00:30:32.247Z,99704.59
2022-11-21T00:32:59.166Z,99705.53
2022-11-21T00:35:25.713Z,99669.34
2022-11-21T00:37:52.179Z,99698.25
2022-11-21T00:40:22.346Z,99713.72
2022-11-21T00:42:49.841Z,99682.94
2022-11-21T00:45:21.177Z,99724.56
2022-11-21T00:47:50.534Z,99688.19
2022-11-21T00:50:17.143Z,99686.03
2022-11-21T00:52:43.648Z,99721.66
2022-11-21T00:55:10.314Z,99700.53
2022-11-21T00:57:36.857Z,99723.00
2022-11-21T01:00:04.808Z,99721.31
2022-11-21T01:02:32.485Z,99733.41
2022-11-21T01:04:59.011Z,99728.94
2022-11-21T01:07:25.544Z,99694.19
2022-11-21T01:09:52.069Z,99687.09
2022-11-21T01:12:18.967Z,99727.19
2022-11-21T01:14:45.524Z,99698.47
2022-11-21T01:17:11.981Z,99736.19
2022-11-21T01:19:38.461Z,99740.72
2022-11-21T01:22:04.919Z,99713.59
2022-11-21T01:24:31.412Z,99720.28
2022-11-21T01:26:58.146Z,99740.47
2022-11-21T01:29:24.687Z,99707.91
2022-11-21T01:31:51.159Z,99713.97
2022-11-21T01:34:18.555Z,99737.66
2022-11-21T01:36:45.710Z,99739.84
2022-11-21T01:39:12.442Z,99743.41
2022-11-21T01:41:44.189Z,99745.84
2022-11-21T01:44:15.261Z,99748.44
2022-11-21T01:46:41.766Z,99731.59
2022-11-21T01:49:11.604Z,99754.25
2022-11-21T01:55:37.754Z,99745.06
2022-11-21T01:58:05.075Z,99753.91
2022-11-21T02:00:37.051Z,99756.28
2022-11-21T02:03:08.541Z,99754.66
2022-11-21T02:05:36.972Z,99732.19
2022-11-21T02:08:07.571Z,99752.56
2022-11-21T02:10:34.848Z,99766.00
2022-11-21T02:13:01.623Z,99769.78
2022-11-21T02:15:29.244Z,99768.44
2022-11-21T02:17:56.366Z,99743.50
2022-11-21T02:20:24.390Z,99777.59
2022-11-21T02:23:03.162Z,99780.88
2022-11-21T02:25:31.457Z,99772.13
2022-11-21T02:28:03.253Z,99767.44
2022-11-21T02:30:31.726Z,99732.06
2022-11-21T02:32:58.554Z,99767.91
2022-11-21T02:35:25.086Z,99729.47
2022-11-21T02:37:55.034Z,99771.09
2022-11-21T02:40:25.552Z,99769.81
2022-11-21T02:43:03.785Z,99768.31
2022-11-21T02:45:41.524Z,99764.50
2022-11-21T02:48:08.393Z,99765.78
2022-11-21T02:50:36.980Z,99766.50
2022-11-21T02:53:05.169Z,99741.22
2022-11-21T02:55:31.801Z,99767.19
2022-11-21T02:58:01.769Z,99708.81
2022-11-21T03:00:31.052Z,99773.19
2022-11-21T03:02:57.535Z,99549.41
2022-11-21T03:05:24.044Z,99772.41
2022-11-21T03:07:50.523Z,99771.00
2022-11-21T03:10:17.431Z,99758.91
2022-11-21T03:12:44.358Z,99741.66
2022-11-21T03:15:13.642Z,99763.75
2022-11-21T03:17:40.411Z,99763.41
2022-11-21T03:20:08.238Z,99762.84
2022-11-21T03:22:35.056Z,99729.31
2022-11-21T03:25:01.686Z,99766.75
2022-11-21T03:27:28.371Z,99773.16
2022-11-21T03:29:54.872Z,99761.88
2022-11-21T03:32:21.319Z,99729.59
2022-11-21T03:34:47.806Z,99774.28
2022-11-21T03:37:14.282Z,99771.25
2022-11-21T03:39:40.746Z,99762.56
2022-11-21T03:42:07.254Z,99739.25
2022-11-21T03:44:33.694Z,99738.03
2022-11-21T03:47:00.164Z,99778.34
2022-11-21T03:49:26.615Z,99766.59
2022-11-21T03:51:53.042Z,99765.91
2022-11-21T03:54:19.528Z,99771.78
2022-11-21T03:56:46.109Z,99741.38
2022-11-21T03:59:12.634Z,99723.28
2022-11-21T04:01:39.323Z,99760.69
2022-11-21T04:04:05.958Z,99772.91
2022-11-21T04:06:32.492Z,99793.03
2022-11-21T04:08:58.961Z,99784.41
2022-11-21T04:11:25.456Z,99771.16
2022-11-21T04:13:52.550Z,99728.97
2022-11-21T04:16:19.533Z,99774.63
2022-11-21T04:18:46.021Z,99762.31
2022-11-21T04:21:12.544Z,99763.25
2022-11-21T04:23:38.973Z,99725.31
2022-11-21T04:26:05.523Z,99727.09
2022-11-21T04:28:32.029Z,99776.41
2022-11-21T04:31:10.878Z,99726.22
2022-11-21T04:33:41.180Z,99762.75
2022-11-21T04:36:08.384Z,99769.31
2022-11-21T04:38:35.112Z,99772.97
2022-11-21T04:41:01.668Z,99765.50
2022-11-21T04:43:28.122Z,99783.31
2022-11-21T04:45:54.617Z,99780.22
2022-11-21T04:48:21.158Z,99746.84
2022-11-21T04:50:47.688Z,99740.22
2022-11-21T04:53:14.276Z,99778.47
2022-11-21T04:55:40.695Z,99776.41
2022-11-21T04:58:07.457Z,99789.47
2022-11-21T05:00:34.906Z,99785.00
2022-11-21T05:03:05.782Z,99772.69
2022-11-21T05:05:32.789Z,99768.72
2022-11-21T05:07:59.357Z,99745.66
2022-11-21T05:10:25.868Z,99715.13
2022-11-21T05:13:18.279Z,99763.91
2022-11-21T05:15:45.233Z,99725.75
2022-11-21T05:18:11.830Z,99765.91
2022-11-21T05:20:38.273Z,99776.41
2022-11-21T05:23:04.826Z,99758.88
2022-11-21T05:25:31.505Z,99767.13
2022-11-21T05:27:57.974Z,99741.59
2022-11-21T05:30:24.456Z,99720.50
2022-11-21T05:32:51.051Z,99740.22
2022-11-21T05:35:17.535Z,99757.19
2022-11-21T05:37:44.184Z,99758.34
2022-11-21T05:40:11.164Z,99756.41
2022-11-21T05:43:01.079Z,99758.88
2022-11-21T05:45:27.628Z,99724.88
2022-11-21T05:47:54.098Z,99721.59
2022-11-21T05:50:20.579Z,99731.22
2022-11-21T05:52:47.139Z,99644.69
2022-11-21T05:55:13.738Z,99714.13
2022-11-21T05:57:40.335Z,99772.72
2022-11-21T06:00:07.466Z,99769.63
2022-11-21T06:02:52.732Z,99773.72
2022-11-21T06:05:19.602Z,99771.75
2022-11-21T06:07:46.211Z,99755.91
2022-11-21T06:10:12.770Z,99700.28
2022-11-21T06:12:39.255Z,99747.88
2022-11-21T06:15:06.418Z,99741.81
2022-11-21T06:17:32.931Z,99711.50
2022-11-21T06:19:59.403Z,99742.25
2022-11-21T06:22:25.875Z,99667.69
2022-11-21T06:24:52.421Z,99743.78
2022-11-21T06:27:19.204Z,99744.69
2022-11-21T06:29:46.009Z,99745.38
2022-11-21T06:32:12.603Z,99744.47
2022-11-21T06:34:39.103Z,99726.34
2022-11-21T06:37:05.884Z,99751.25
2022-11-21T06:39:32.354Z,99717.22
2022-11-21T06:41:58.969Z,99735.31
2022-11-21T06:44:25.796Z,99704.78
2022-11-21T06:46:52.421Z,99740.69
2022-11-21T06:49:18.975Z,99733.72
2022-11-21T06:51:45.446Z,99721.88
2022-11-21T06:54:16.473Z,99743.97
2022-11-21T06:56:43.924Z,99684.59
2022-11-21T06:59:10.774Z,99746.44
2022-11-21T07:01:37.423Z,99703.28
2022-11-21T07:04:04.353Z,99700.09
2022-11-21T07:06:30.834Z,99702.25
2022-11-21T07:09:30.844Z,99695.56
2022-11-21T07:11:43.915Z,99729.28
2022-11-21T07:14:10.601Z,99742.84
2022-11-21T07:16:37.285Z,99708.66
2022-11-21T07:19:03.780Z,99741.31
2022-11-21T07:21:30.349Z,99703.06
2022-11-21T07:23:56.838Z,99730.41
2022-11-21T07:26:23.339Z,99686.50
2022-11-21T07:28:49.840Z,99678.31
2022-11-21T07:31:16.522Z,99729.44
2022-11-21T07:33:46.866Z,99686.38
2022-11-21T07:36:13.842Z,99699.69
2022-11-21T07:38:41.604Z,99736.13
2022-11-21T07:41:08.909Z,99744.53
2022-11-21T07:43:35.452Z,99737.44
2022-11-21T07:46:02.042Z,99677.88
2022-11-21T07:48:28.527Z,99748.13
2022-11-21T07:50:54.955Z,99707.13
2022-11-21T07:53:21.673Z,99730.53
2022-11-21T07:55:48.277Z,99718.41
2022-11-21T07:58:16.295Z,99745.22
2022-11-21T08:00:43.100Z,99745.94
2022-11-21T08:03:11.907Z,99744.50
2022-11-21T08:05:42.616Z,99740.03
2022-11-21T08:08:10.110Z,99735.56
2022-11-21T08:10:44.613Z,99736.03
2022-11-21T08:13:11.979Z,99687.75
2022-11-21T08:15:39.087Z,99719.75
2022-11-21T08:18:08.912Z,99730.09
2022-11-21T08:20:35.797Z,99727.34
2022-11-21T08:23:02.962Z,99728.41
2022-11-21T08:25:29.434Z,99712.28
2022-11-21T08:27:59.517Z,99727.03
2022-11-21T08:30:26.535Z,99719.59
2022-11-21T08:32:53.007Z,99721.03
2022-11-21T08:35:19.612Z,99720.00
2022-11-21T08:37:46.187Z,99693.81
2022-11-21T08:40:12.699Z,99725.00
2022-11-21T08:42:39.192Z,99727.16
2022-11-21T08:45:06.189Z,99719.91
2022-11-21T08:47:33.864Z,99686.25
2022-11-21T08:50:04.346Z,99709.91
2022-11-21T08:52:34.031Z,99697.97
2022-11-21T08:55:00.495Z,99713.97
2022-11-21T08:57:27.003Z,99676.06
2022-11-21T08:59:53.550Z,99717.03
2022-11-21T09:02:20.000Z,99707.53
2022-11-21T09:04:46.476Z,99712.53
2022-11-21T09:07:12.968Z,99709.00
2022-11-21T09:09:39.485Z,99713.78
2022-11-21T09:12:06.267Z,99703.63
2022-11-21T09:14:51.340Z,99653.13
2022-11-21T09:17:36.289Z,99707.72
2022-11-21T09:20:03.278Z,99689.72
2022-11-21T09:22:30.028Z,99645.31
2022-11-21T09:24:56.476Z,99683.00
2022-11-21T09:27:22.956Z,99684.69
2022-11-21T09:29:53.852Z,99691.78
2022-11-21T09:32:20.858Z,99681.09
2022-11-21T09:34:47.316Z,99638.69
2022-11-21T09:37:14.027Z,99694.81
2022-11-21T09:39:40.568Z,99708.78
2022-11-21T09:42:15.973Z,99706.13
2022-11-21T09:45:04.270Z,99717.88
2022-11-21T09:47:52.499Z,99717.75
2022-11-21T09:50:26.185Z,99711.78
2022-11-21T09:53:14.459Z,99702.84
2022-11-21T09:55:50.975Z,99701.94
2022-11-21T09:58:37.385Z,99702.03
2022-11-21T10:01:04.156Z,99675.03
2022-11-21T10:03:41.326Z,99703.03
2022-11-21T10:06:26.069Z,99690.22
2022-11-21T10:08:58.342Z,99690.69
2022-11-21T10:12:11.264Z,99661.09
2022-11-21T10:14:55.716Z,99688.88
2022-11-21T10:17:54.207Z,99683.31
2022-11-21T10:20:29.453Z,99675.50
2022-11-21T10:23:20.737Z,99669.63
2022-11-21T10:25:58.047Z,99665.38
2022-11-21T10:28:37.939Z,99665.59
2022-11-21T10:31:04.726Z,99648.00
2022-11-21T10:33:33.458Z,99638.53
2022-11-21T10:36:13.861Z,99639.25
2022-11-21T10:38:43.363Z,99626.16
2022-11-21T10:41:21.714Z,99636.00
2022-11-21T10:44:47.264Z,99618.75
2022-11-21T10:47:33.549Z,99610.84
2022-11-21T10:50:09.104Z,99603.50
2022-11-21T10:52:49.269Z,99598.56
2022-11-21T10:55:16.852Z,99591.34
2022-11-21T10:57:48.589Z,99585.13
2022-11-21T11:00:22.501Z,99578.44
2022-11-21T11:03:04.761Z,99587.31
2022-11-21T11:05:36.289Z,99577.00
2022-11-21T11:08:02.833Z,99568.72
2022-11-21T11:10:29.991Z,99568.97
2022-11-21T11:13:44.410Z,99573.56
2022-11-21T11:16:25.475Z,99566.69
2022-11-21T11:19:15.733Z,99559.97
2022-11-21T11:21:44.396Z,99558.41
2022-11-21T11:24:10.871Z,99555.03
2022-11-21T11:26:48.106Z,99558.75
2022-11-21T11:29:19.556Z,99562.25
2022-11-21T11:32:01.355Z,99558.00
2022-11-21T11:34:42.193Z,99542.25
2022-11-21T11:37:31.269Z,99538.63
2022-11-21T11:40:21.620Z,99528.78
2022-11-21T11:43:29.617Z,99517.50
2022-11-21T11:46:32.654Z,99523.72
2022-11-21T11:49:20.350Z,99516.25
2022-11-21T11:51:55.380Z,99510.53
2022-11-21T11:54:26.830Z,99501.94
2022-11-21T11:56:53.956Z,99488.94
2022-11-21T11:59:51.214Z,99497.28
2022-11-21T12:02:42.754Z,99490.63
2022-11-21T12:05:14.670Z,99494.78
2022-11-21T12:10:37.120Z,99448.97
2022-11-21T12:13:11.443Z,99469.03
2022-11-21T12:15:49.921Z,99430.19
2022-11-21T12:18:20.601Z,99439.00
2022-11-21T12:21:04.246Z,99441.28
2022-11-21T12:23:30.670Z,99445.38
2022-11-21T12:26:21.522Z,99443.06
2022-11-21T12:29:16.964Z,99434.47
2022-11-21T12:32:10.165Z,99396.88
2022-11-21T12:35:04.788Z,99426.44
2022-11-21T12:37:59.235Z,99430.56
2022-11-21T12:40:34.830Z,99426.25
2022-11-21T12:43:24.747Z,99405.09
2022-11-21T12:45:55.272Z,99400.72
2022-11-21T12:49:18.526Z,99399.13
2022-11-21T12:52:15.727Z,99398.16
2022-11-21T12:54:57.728Z,99371.03
2022-11-21T12:57:32.960Z,99376.50
2022-11-21T13:00:21.194Z,99389.41
2022-11-21T13:03:03.843Z,99376.53
2022-11-21T13:05:38.017Z,99372.56
2022-11-21T13:08:13.758Z,99353.91
2022-11-21T13:10:46.977Z,99375.03
2022-11-21T13:13:30.442Z,99369.53
2022-11-21T13:16:06.366Z,99365.66
2022-11-21T13:18:41.921Z,99334.09
2022-11-21T13:21:44.485Z,99362.72
2022-11-21T13:24:11.599Z,99358.16
2022-11-21T13:26:38.011Z,99359.47
2022-11-21T13:29:08.100Z,99347.00
2022-11-21T13:31:34.976Z,99358.47
2022-11-21T13:34:03.006Z,99341.19
2022-11-21T13:36:29.491Z,99336.88
2022-11-21T13:38:59.876Z,99345.63
2022-11-21T13:41:53.917Z,99339.78
2022-11-21T13:44:32.556Z,99339.06
2022-11-21T13:47:05.019Z,99332.03
2022-11-21T13:49:36.743Z,99327.38
2022-11-21T13:52:11.651Z,99324.50
2022-11-21T13:55:06.112Z,99322.31
2022-11-21T13:58:03.048Z,99320.97
2022-11-21T14:00:38.046Z,99273.44
2022-11-21T14:03:10.607Z,99303.75
2022-11-21T14:05:59.312Z,99298.16
2022-11-21T14:08:27.563Z,99281.50
2022-11-21T14:10:56.128Z,99286.84
2022-11-21T14:13:30.031Z,99279.41
2022-11-21T14:16:30.932Z,99280.56
2022-11-21T14:18:58.214Z,99267.91
2022-11-21T14:21:29.777Z,99249.41
2022-11-21T14:23:58.407Z,99245.59
2022-11-21T14:26:25.578Z,99259.91
2022-11-21T14:28:52.232Z,99237.94
2022-11-21T14:31:19.195Z,99238.72
2022-11-21T14:33:47.430Z,99203.56
2022-11-21T14:36:16.580Z,99243.19
2022-11-21T14:39:29.011Z,99212.69
2022-11-21T14:41:48.578Z,99240.16
2022-11-21T14:44:17.564Z,99234.16
2022-11-21T14:46:44.775Z,99231.16
2022-11-21T14:49:17.348Z,99225.13
2022-11-21T14:52:02.626Z,99221.16
2022-11-21T14:55:06.316Z,99208.28
2022-11-21T14:57:37.218Z,99179.38
2022-11-21T15:00:06.078Z,99203.19
2022-11-21T15:02:33.195Z,99224.31
2022-11-21T15:05:02.820Z,99188.00
2022-11-21T15:07:45.221Z,99208.97
2022-11-21T15:13:13.754Z,99194.63
2022-11-21T15:15:44.307Z,99174.56
2022-11-21T15:18:27.902Z,99152.72
2022-11-21T15:20:57.134Z,99179.81
2022-11-21T15:23:33.650Z,99140.31
2022-11-21T15:26:01.601Z,99175.13
2022-11-21T15:28:29.476Z,99167.84
2022-11-21T15:31:34.564Z,99166.47
2022-11-21T15:37:03.557Z,99147.59
2022-11-21T15:39:30.203Z,99125.13
2022-11-21T15:42:34.285Z,99142.56
2022-11-21T15:45:03.292Z,99150.63
2022-11-21T15:47:29.803Z,99112.13
2022-11-21T15:49:56.245Z,99133.06
2022-11-21T15:52:23.281Z,99140.84
2022-11-21T15:54:50.079Z,99141.53
2022-11-21T15:57:14.857Z,99214.84
2022-11-21T15:57:21.485Z,99064.44
2022-11-21T15:59:49.597Z,99114.25
2022-11-21T16:02:16.324Z,99109.94
2022-11-21T16:04:42.848Z,99111.13
2022-11-21T16:07:12.185Z,99103.28
2022-11-21T16:09:39.332Z,99087.75
2022-11-21T16:12:06.366Z,99084.84
2022-11-21T16:14:32.781Z,99013.44
2022-11-21T16:16:59.265Z,99020.06
2022-11-21T16:19:25.964Z,99055.81
2022-11-21T16:21:53.691Z,99053.31
2022-11-21T16:24:20.499Z,99036.38
2022-11-21T16:26:47.165Z,99043.22
2022-11-21T16:29:14.113Z,99045.34
2022-11-21T16:31:40.749Z,99034.16
2022-11-21T16:34:07.198Z,98999.25
2022-11-21T16:36:33.746Z,99042.09
2022-11-21T16:39:07.772Z,99025.66
2022-11-21T16:41:36.875Z,99033.75
2022-11-21T16:44:03.471Z,99027.44
2022-11-21T16:46:30.419Z,98990.81
2022-11-21T16:49:01.505Z,99017.66
2022-11-21T16:51:28.522Z,99010.41
2022-11-21T16:53:56.995Z,98988.25
2022-11-21T16:56:23.863Z,98948.94
2022-11-21T16:58:50.468Z,98970.56
2022-11-21T17:01:25.118Z,98977.44
2022-11-21T17:03:52.369Z,98973.03
2022-11-21T17:06:24.557Z,98972.44
2022-11-21T17:08:51.157Z,98936.72
2022-11-21T17:11:29.545Z,98970.94
2022-11-21T17:13:58.410Z,98966.53
2022-11-21T17:16:24.959Z,98955.69
2022-11-21T17:18:56.421Z,98983.38
2022-11-21T17:21:23.523Z,98983.19
2022-11-21T17:23:50.450Z,98968.34
2022-11-21T17:26:19.089Z,98978.97
2022-11-21T17:28:54.153Z,98908.53
2022-11-21T17:31:21.220Z,98956.88
2022-11-21T17:33:51.658Z,98955.94
2022-11-21T17:36:22.362Z,98957.47
2022-11-21T17:38:49.294Z,98910.03
2022-11-21T17:41:17.586Z,98939.22
2022-11-21T17:43:44.639Z,98918.13
2022-11-21T17:46:17.044Z,98934.84
2022-11-21T17:48:47.349Z,98926.41
2022-11-21T17:51:18.820Z,98923.97
2022-11-21T17:53:47.169Z,98899.56
2022-11-21T17:56:16.399Z,98912.72
2022-11-21T17:58:45.112Z,98925.66
2022-11-21T18:01:18.755Z,98921.69
2022-11-21T18:04:03.141Z,98928.38
2022-11-21T18:06:34.377Z,98924.56
2022-11-21T18:09:00.875Z,98913.91
2022-11-21T18:11:32.060Z,98912.03
2022-11-21T18:14:03.791Z,98899.84
2022-11-21T18:16:31.771Z,98905.97
2022-11-21T18:18:59.047Z,98886.63
2022-11-21T18:21:28.436Z,98869.50
2022-11-21T18:23:56.496Z,98877.72
2022-11-21T18:26:24.035Z,98871.22
2022-11-21T18:29:13.093Z,98860.94
2022-11-21T18:31:38.952Z,98853.00
2022-11-21T18:34:06.561Z,98830.22
2022-11-21T18:36:33.261Z,98842.00
2022-11-21T18:39:05.939Z,98838.09
2022-11-21T18:41:36.368Z,98830.59
2022-11-21T18:44:06.773Z,98829.00
2022-11-21T18:46:34.882Z,98843.94
2022-11-21T18:49:05.158Z,98864.69
2022-11-21T18:51:33.880Z,98896.72
2022-11-21T18:54:07.124Z,98920.47
2022-11-21T18:56:34.806Z,98952.19
2022-11-21T18:59:03.228Z,98954.75
2022-11-21T19:01:33.476Z,98951.91
2022-11-21T19:04:00.049Z,98895.16
2022-11-21T19:06:28.827Z,98922.47
2022-11-21T19:08:57.049Z,98910.44
2022-11-21T19:11:25.497Z,98905.91
2022-11-21T19:13:53.057Z,98894.25
2022-11-21T19:16:22.065Z,98889.66
2022-11-21T19:19:11.697Z,98879.47
2022-11-21T19:21:38.696Z,98776.53
2022-11-21T19:24:09.350Z,98881.25
2022-11-21T19:26:35.896Z,98879.47
2022-11-21T19:29:02.398Z,98861.94
2022-11-21T19:31:28.894Z,98869.06
2022-11-21T19:33:55.381Z,98861.25
2022-11-21T19:36:23.673Z,98857.84
2022-11-21T19:38:51.539Z,98862.94
2022-11-21T19:41:20.839Z,98814.66
2022-11-21T19:43:58.770Z,98850.97
2022-11-21T19:46:43.543Z,98836.16
2022-11-21T19:49:11.298Z,98834.34
2022-11-21T19:51:40.468Z,98828.28
2022-11-21T19:54:08.166Z,98827.25
2022-11-21T19:56:35.448Z,98778.38
2022-11-21T19:59:05.565Z,98810.00
2022-11-21T20:01:33.566Z,98819.56
2022-11-21T20:04:02.415Z,98819.19
2022-11-21T20:06:34.361Z,98806.66
2022-11-21T20:09:04.098Z,98804.22
2022-11-21T20:11:31.635Z,98823.47
2022-11-21T20:13:58.691Z,98818.41
2022-11-21T20:16:39.886Z,98793.03
2022-11-21T20:19:09.795Z,98806.97
2022-11-21T20:21:37.373Z,98805.44
2022-11-21T20:24:05.026Z,98809.66
2022-11-21T20:26:32.521Z,98814.25
2022-11-21T20:28:59.345Z,98700.06
2022-11-21T20:31:28.564Z,98797.66
2022-11-21T20:33:58.153Z,98796.44
2022-11-21T20:36:26.039Z,98804.78
2022-11-21T20:38:56.934Z,98814.75
2022-11-21T20:41:25.713Z,98797.19
2022-11-21T20:44:44.699Z,98797.59
2022-11-21T20:46:43.105Z,98793.47
2022-11-21T20:49:09.939Z,98778.06
2022-11-21T20:54:23.260Z,98776.91
2022-11-21T20:56:49.831Z,98780.53
2022-11-21T20:59:16.357Z,98767.22
2022-11-21T21:01:43.164Z,98723.66
2022-11-21T21:04:10.004Z,98722.50
2022-11-21T21:06:37.528Z,98759.22
2022-11-21T21:09:04.254Z,98750.06
2022-11-21T21:11:52.911Z,98731.44
2022-11-21T21:14:17.333Z,98698.66
2022-11-21T21:16:43.825Z,98733.75
2022-11-21T21:19:10.340Z,98719.69
2022-11-21T21:21:37.050Z,98721.78
2022-11-21T21:24:06.091Z,98723.56
2022-11-21T21:26:41.567Z,98711.66
2022-11-21T21:29:10.743Z,98701.13
2022-11-21T21:31:37.255Z,98648.28
2022-11-21T21:34:03.797Z,98699.22
2022-11-21T21:36:32.027Z,98698.75
2022-11-21T21:38:59.583Z,98699.81
2022-11-21T21:41:28.965Z,98657.41
2022-11-21T21:43:57.084Z,98653.63
2022-11-21T21:46:27.629Z,98642.00
2022-11-21T21:48:56.184Z,98674.66
2022-11-21T21:51:30.470Z,98637.53
2022-11-21T21:53:58.419Z,98679.91
2022-11-21T21:56:27.440Z,98655.56
2022-11-21T21:58:54.006Z,98645.63
2022-11-21T22:01:27.472Z,98660.59
2022-11-21T22:03:56.076Z,98673.91
2022-11-21T22:06:22.623Z,98668.47
2022-11-21T22:08:50.008Z,98661.91
2022-11-21T22:11:18.939Z,98623.78
2022-11-21T22:13:47.908Z,98652.81
2022-11-21T22:16:14.522Z,98652.31
2022-11-21T22:18:41.631Z,98652.97
2022-11-21T22:21:22.013Z,98639.94
2022-11-21T22:24:17.722Z,98646.66
2022-11-21T22:26:35.041Z,98658.28
2022-11-21T22:29:01.594Z,98660.81
2022-11-21T22:31:30.687Z,98653.47
2022-11-21T22:33:57.207Z,98607.22
2022-11-21T22:36:23.886Z,98647.72
2022-11-21T22:38:53.763Z,98652.88
2022-11-21T22:41:25.106Z,98650.94
2022-11-21T22:43:59.254Z,98630.44
2022-11-21T22:46:27.241Z,98650.78
2022-11-21T22:48:54.374Z,98662.06
2022-11-21T22:51:23.684Z,98662.38
2022-11-21T22:53:50.581Z,98660.03
2022-11-21T22:56:19.053Z,98674.94
2022-11-21T22:58:46.145Z,98622.28
2022-11-21T23:01:16.732Z,98634.06
2022-11-21T23:03:43.867Z,98597.66
2022-11-21T23:06:18.482Z,98663.41
2022-11-21T23:08:45.448Z,98664.47
2022-11-21T23:11:14.856Z,98667.63
2022-11-21T23:13:43.816Z,98653.94
2022-11-21T23:16:11.111Z,98648.47
2022-11-21T23:18:37.956Z,98657.19
2022-11-21T23:21:05.004Z,98656.97
2022-11-21T23:23:32.270Z,98606.41
2022-11-21T23:25:59.192Z,98647.22
2022-11-21T23:28:25.960Z,98639.66
2022-11-21T23:30:52.440Z,98594.81
2022-11-21T23:33:19.281Z,98650.56
2022-11-21T23:35:46.289Z,98649.63
2022-11-21T23:38:14.576Z,98643.56
2022-11-21T23:40:41.257Z,98622.16
2022-11-21T23:43:08.186Z,98629.88
2022-11-21T23:45:34.995Z,98646.94
2022-11-21T23:48:01.628Z,98639.78
2022-11-21T23:50:28.195Z,98634.78
2022-11-21T23:52:54.876Z,98632.03
2022-11-21T23:55:21.348Z,98601.66
2022-11-21T23:57:48.526Z,98576.91
